Trow Hill, Vermont
Current Conditions -  °F | °C
As of 3:18 AM on Saturday 25 Oct 2014 (Local Time) from KMPV Reporting Station
Haze Haze  
Wind Chill: 33°   Ceiling: 100
Heat Index: 33°   Visibility: 1.5mi
Dew Point: 32°   Wind: 0mph
Humidity: 96%   Direction: NA
Pressure: 29.79"   Gusts: NA
Location:  44.1738°N, 72.4252°W
Report Text: KMPV 250718Z AUTO 00000KT 1 1/2SM BR BKN001 01/00 A2979 RMK AO2 T00060000 $
Loading
Personal Weather Stations






























Interactive Weather Map
Tropical Storm Tracking
New forecast layout! Learn more

10-Day Weather Forecast

Advertisements
Track Severe Weather on mobile